Time;durP1;ratioP1;P1;durP2;ratioP2;P2;SDS_P1;SDS_P2;PMS_P1;PMS_P2;Temp;Humidity;BMP_temperature;BMP_pressure;BME280_temperature;BME280_humidity;BME280_pressure;Samples;Min_cycle;Max_cycle;Signal;HPM_P1;HPM_P2
2021/06/17 00:00:25;;;;;;;16.20;13.88;;;;;;;19.52;100.00;100989.59;3596907;39;20074;-64
2021/06/17 00:02:54;;;;;;;14.98;13.45;;;;;;;19.55;100.00;100988.34;3595583;39;20043;-64
2021/06/17 00:05:21;;;;;;;15.23;13.70;;;;;;;19.44;100.00;100989.69;3587941;39;20317;-64
2021/06/17 00:07:49;;;;;;;15.70;14.07;;;;;;;19.43;100.00;100994.31;3589704;39;20050;-65
2021/06/17 00:10:23;;;;;;;15.60;13.98;;;;;;;19.43;100.00;100991.59;3594632;39;20330;-64
2021/06/17 00:12:49;;;;;;;16.23;13.98;;;;;;;19.42;100.00;100983.59;3589387;39;20056;-64
2021/06/17 00:15:17;;;;;;;16.55;13.75;;;;;;;19.39;100.00;100983.94;3587924;39;20058;-65
2021/06/17 00:17:45;;;;;;;14.55;13.15;;;;;;;19.36;100.00;100981.59;3591928;39;20047;-63
2021/06/17 00:20:13;;;;;;;15.48;13.95;;;;;;;19.30;100.00;100979.66;3594454;39;20051;-65
2021/06/17 00:22:40;;;;;;;16.83;14.52;;;;;;;19.35;100.00;100985.38;3588743;39;20081;-63
2021/06/17 00:25:08;;;;;;;16.65;14.88;;;;;;;19.32;100.00;100985.78;3594743;39;20117;-65
2021/06/17 00:27:36;;;;;;;18.52;14.05;;;;;;;19.18;100.00;100976.56;3590661;39;20046;-64
2021/06/17 00:30:04;;;;;;;20.98;15.18;;;;;;;19.09;100.00;100981.28;3589432;39;20434;-64
2021/06/17 00:32:31;;;;;;;18.48;15.25;;;;;;;19.08;100.00;100977.69;3591692;39;20040;-66
2021/06/17 00:34:57;;;;;;;15.82;14.18;;;;;;;19.08;100.00;100979.59;3591150;39;20067;-64
2021/06/17 00:37:24;;;;;;;14.10;12.70;;;;;;;19.06;100.00;100971.56;3588605;39;20058;-64
2021/06/17 00:39:50;;;;;;;18.63;14.15;;;;;;;19.06;100.00;100966.13;3593229;39;20043;-64
2021/06/17 00:42:18;;;;;;;16.08;14.48;;;;;;;19.05;100.00;100969.03;3592473;39;20040;-64
2021/06/17 00:44:46;;;;;;;16.83;15.10;;;;;;;19.04;100.00;100970.94;3596265;39;20052;-64
2021/06/17 00:47:12;;;;;;;14.85;13.35;;;;;;;18.99;100.00;100970.66;3586313;39;20055;-64
2021/06/17 00:52:32;;;;;;;16.73;14.60;;;;;;;19.01;100.00;100967.75;3570325;22;20056;-65
2021/06/17 00:54:59;;;;;;;15.68;14.02;;;;;;;19.00;100.00;100974.22;3585266;39;20052;-64
2021/06/17 00:57:25;;;;;;;15.85;14.30;;;;;;;18.97;100.00;100969.16;3584900;39;20087;-64
2021/06/17 00:59:53;;;;;;;17.05;14.52;;;;;;;18.91;100.00;100968.03;3583659;39;20067;-64
2021/06/17 01:02:20;;;;;;;17.60;14.90;;;;;;;18.93;100.00;100962.38;3588749;39;20050;-63
2021/06/17 01:04:47;;;;;;;16.55;14.95;;;;;;;18.91;100.00;100959.84;3584464;39;20050;-66
2021/06/17 01:07:21;;;;;;;18.42;14.32;;;;;;;18.88;100.00;100957.50;3588225;39;20058;-65
2021/06/17 01:09:52;;;;;;;16.88;14.75;;;;;;;18.84;100.00;100956.97;3585848;39;20048;-64
2021/06/17 01:12:26;;;;;;;17.58;15.68;;;;;;;18.78;100.00;100952.28;3582537;39;20410;-63
2021/06/17 01:15:00;;;;;;;17.50;14.90;;;;;;;18.73;100.00;100949.28;3587512;39;20067;-64
2021/06/17 01:17:27;;;;;;;17.23;14.77;;;;;;;18.66;100.00;100951.91;3587600;39;20052;-66
2021/06/17 01:20:06;;;;;;;17.50;15.02;;;;;;;18.80;100.00;100954.81;3583130;39;20050;-64
2021/06/17 01:22:39;;;;;;;17.45;15.13;;;;;;;18.74;100.00;100946.38;3586886;39;20055;-64
2021/06/17 01:25:14;;;;;;;18.77;15.77;;;;;;;18.53;100.00;100948.97;3583821;39;20422;-64
2021/06/17 01:28:04;;;;;;;17.08;15.35;;;;;;;18.67;100.00;100941.88;3589018;39;20056;-65
2021/06/17 01:30:32;;;;;;;16.67;14.98;;;;;;;18.65;100.00;100933.00;3577996;39;20406;-65
2021/06/17 01:33:02;;;;;;;17.58;15.73;;;;;;;18.64;100.00;100934.03;3586146;39;20061;-64
2021/06/17 01:35:32;;;;;;;16.42;14.60;;;;;;;18.59;100.00;100933.75;3585438;39;20044;-66
2021/06/17 01:38:03;;;;;;;16.70;15.02;;;;;;;18.56;100.00;100933.13;3584015;39;20074;-64
2021/06/17 01:40:31;;;;;;;18.20;16.40;;;;;;;18.60;100.00;100932.75;3584158;39;20055;-64
2021/06/17 01:42:59;;;;;;;17.92;16.05;;;;;;;18.52;100.00;100939.97;3587706;39;20048;-65
2021/06/17 01:45:28;;;;;;;19.27;16.30;;;;;;;18.50;100.00;100942.00;3589809;39;20044;-66
2021/06/17 01:47:55;;;;;;;17.83;16.08;;;;;;;18.53;100.00;100947.09;3592854;39;20055;-66
2021/06/17 01:50:26;;;;;;;18.50;16.63;;;;;;;18.52;100.00;100955.44;3593881;39;20068;-64
2021/06/17 01:52:54;;;;;;;17.05;15.48;;;;;;;18.37;100.00;100953.56;3586781;39;20052;-64
2021/06/17 01:55:22;;;;;;;16.77;15.18;;;;;;;18.39;100.00;100951.50;3591588;39;20053;-64
2021/06/17 01:57:49;;;;;;;17.93;16.13;;;;;;;18.39;100.00;100950.66;3593877;39;20038;-64
2021/06/17 02:00:16;;;;;;;18.95;16.95;;;;;;;18.45;100.00;100946.34;3586189;39;20048;-66
2021/06/17 02:02:46;;;;;;;18.02;16.23;;;;;;;18.45;100.00;100949.91;3588559;39;20088;-64
2021/06/17 02:05:14;;;;;;;17.70;15.80;;;;;;;18.38;100.00;100943.50;3590637;39;20055;-64
2021/06/17 02:07:42;;;;;;;17.73;16.02;;;;;;;18.41;100.00;100942.31;3592684;39;20427;-65
2021/06/17 02:10:10;;;;;;;20.30;16.20;;;;;;;18.25;100.00;100943.31;3589523;39;20470;-63
2021/06/17 02:12:39;;;;;;;18.58;16.67;;;;;;;18.16;100.00;100937.91;3591344;39;20078;-63
2021/06/17 02:15:08;;;;;;;17.40;15.70;;;;;;;18.20;100.00;100939.25;3589076;39;20062;-64
2021/06/17 02:17:35;;;;;;;19.63;16.02;;;;;;;18.18;100.00;100935.88;3591893;39;20090;-64
2021/06/17 02:20:05;;;;;;;19.10;16.15;;;;;;;18.27;100.00;100931.19;3594378;39;20529;-64
2021/06/17 02:22:32;;;;;;;18.27;16.48;;;;;;;18.28;100.00;100942.94;3591211;39;20044;-65
2021/06/17 02:24:59;;;;;;;19.00;16.63;;;;;;;18.27;100.00;100938.50;3587287;39;20036;-66
2021/06/17 02:27:29;;;;;;;18.60;16.65;;;;;;;18.30;100.00;100930.81;3591814;39;20040;-65
2021/06/17 02:30:00;;;;;;;17.17;15.48;;;;;;;18.27;100.00;100935.78;3591940;39;20047;-64
2021/06/17 02:32:28;;;;;;;17.98;16.05;;;;;;;18.23;100.00;100926.28;3592247;39;20081;-65
2021/06/17 02:34:58;;;;;;;18.40;16.60;;;;;;;18.21;100.00;100929.19;3653999;22;20048;-64
2021/06/17 02:37:27;;;;;;;17.23;15.10;;;;;;;18.24;100.00;100925.25;3600975;39;20062;-66
2021/06/17 02:39:55;;;;;;;17.23;15.27;;;;;;;18.25;100.00;100921.50;3599851;39;20070;-64
2021/06/17 02:42:25;;;;;;;17.23;14.90;;;;;;;18.20;100.00;100912.00;3601209;39;20071;-66
2021/06/17 02:44:53;;;;;;;20.73;17.50;;;;;;;18.31;100.00;100907.13;3605545;39;20048;-64
2021/06/17 02:47:19;;;;;;;18.63;16.83;;;;;;;18.25;100.00;100908.72;3603462;39;20077;-65
2021/06/17 02:49:46;;;;;;;17.63;15.27;;;;;;;18.18;100.00;100899.59;3606790;39;20059;-66
2021/06/17 02:52:13;;;;;;;20.13;16.38;;;;;;;18.26;100.00;100898.69;3605318;39;20058;-64
2021/06/17 02:54:41;;;;;;;18.48;16.20;;;;;;;18.23;100.00;100899.91;3603300;39;20054;-65
2021/06/17 02:57:13;;;;;;;17.73;15.85;;;;;;;18.19;100.00;100895.84;3597358;39;21099;-63
2021/06/17 02:59:56;;;;;;;18.35;16.35;;;;;;;18.14;100.00;100888.25;3599169;39;20043;-64
2021/06/17 03:02:28;;;;;;;19.85;16.23;;;;;;;18.27;100.00;100875.84;3602020;39;20093;-66
2021/06/17 03:05:05;;;;;;;18.70;16.70;;;;;;;18.29;100.00;100881.97;3600257;39;20084;-64
2021/06/17 03:07:36;;;;;;;21.10;17.80;;;;;;;18.31;100.00;100883.44;3604385;39;20051;-65
2021/06/17 03:10:07;;;;;;;18.85;16.95;;;;;;;18.36;100.00;100878.31;3602060;39;20094;-65
2021/06/17 03:12:37;;;;;;;19.45;16.05;;;;;;;18.41;100.00;100877.75;3603546;39;20047;-66
2021/06/17 03:15:08;;;;;;;18.08;16.17;;;;;;;18.54;100.00;100877.91;3603858;39;20028;-65
2021/06/17 03:17:35;;;;;;;19.80;17.50;;;;;;;18.51;100.00;100883.75;3604881;39;20301;-65
2021/06/17 03:20:05;;;;;;;18.52;16.60;;;;;;;18.59;100.00;100882.81;3605252;39;20075;-64
2021/06/17 03:22:34;;;;;;;18.20;16.38;;;;;;;18.67;100.00;100879.16;3605098;39;20051;-63
2021/06/17 03:25:07;;;;;;;19.20;17.20;;;;;;;18.69;100.00;100879.81;3601729;39;20421;-63
2021/06/17 03:27:34;;;;;;;19.17;16.17;;;;;;;18.88;100.00;100883.88;3602697;39;20279;-64
2021/06/17 03:30:03;;;;;;;19.60;17.40;;;;;;;18.94;100.00;100879.53;3602579;39;20058;-64
2021/06/17 03:32:32;;;;;;;18.80;16.80;;;;;;;18.86;100.00;100880.47;3602693;39;20051;-64
2021/06/17 03:35:01;;;;;;;22.42;17.52;;;;;;;18.97;100.00;100887.31;3602427;39;20394;-65
2021/06/17 03:37:28;;;;;;;20.10;17.98;;;;;;;18.97;100.00;100881.88;3604663;39;20125;-64
2021/06/17 03:39:57;;;;;;;19.48;17.40;;;;;;;18.89;100.00;100870.03;3604263;39;20059;-65
2021/06/17 03:42:26;;;;;;;20.17;17.55;;;;;;;18.98;100.00;100875.38;3602764;39;20406;-64
2021/06/17 03:44:53;;;;;;;20.02;17.25;;;;;;;18.97;100.00;100876.41;3603788;39;20055;-65
2021/06/17 03:47:24;;;;;;;18.30;16.40;;;;;;;19.08;100.00;100878.66;3602227;39;20051;-64
2021/06/17 03:49:52;;;;;;;19.25;15.52;;;;;;;19.20;100.00;100876.28;3602004;39;20039;-65
2021/06/17 03:52:20;;;;;;;20.30;16.37;;;;;;;19.37;100.00;100871.41;3604423;39;20066;-64
2021/06/17 03:54:48;;;;;;;18.10;16.17;;;;;;;19.42;100.00;100882.59;3599450;39;20191;-63
2021/06/17 03:57:19;;;;;;;18.58;15.80;;;;;;;19.43;100.00;100873.34;3604068;39;20067;-64
2021/06/17 03:59:48;;;;;;;19.13;17.05;;;;;;;19.40;100.00;100871.00;3600898;39;20059;-64
2021/06/17 04:02:15;;;;;;;17.70;15.38;;;;;;;19.54;100.00;100883.75;3603896;39;20051;-65
2021/06/17 04:07:15;;;;;;;19.08;17.08;;;;;;;19.66;100.00;100884.09;3611618;22;20044;-66
2021/06/17 04:09:44;;;;;;;20.58;16.95;;;;;;;19.78;100.00;100884.44;3573208;40;20060;-64
2021/06/17 04:12:14;;;;;;;19.58;15.68;;;;;;;19.89;100.00;100886.66;3571110;40;20494;-66
2021/06/17 04:14:44;;;;;;;19.55;16.48;;;;;;;19.89;100.00;100897.56;3562262;40;20146;-64
2021/06/17 04:17:14;;;;;;;18.67;16.67;;;;;;;19.92;100.00;100882.66;3567840;40;20049;-64
2021/06/17 04:19:44;;;;;;;19.77;16.45;;;;;;;20.11;100.00;100882.00;3574663;40;20621;-64
2021/06/17 04:22:13;;;;;;;18.65;16.10;;;;;;;20.04;100.00;100877.53;3574156;40;20072;-64
2021/06/17 04:24:43;;;;;;;19.92;17.30;;;;;;;19.94;100.00;100884.16;3571693;40;20251;-66
2021/06/17 04:27:09;;;;;;;20.85;17.60;;;;;;;20.07;100.00;100877.13;3569366;40;20055;-64
2021/06/17 04:29:39;;;;;;;17.77;15.93;;;;;;;20.16;100.00;100877.81;3574415;40;20052;-67
2021/06/17 04:32:06;;;;;;;18.27;15.68;;;;;;;20.15;100.00;100868.75;3565308;40;20059;-67
2021/06/17 04:34:36;;;;;;;17.00;15.20;;;;;;;20.11;100.00;100870.19;3568500;40;20131;-65
2021/06/17 04:37:03;;;;;;;20.70;17.30;;;;;;;20.22;100.00;100869.66;3572898;40;20080;-66
2021/06/17 04:39:30;;;;;;;23.50;18.63;;;;;;;20.23;100.00;100868.63;3571608;40;20047;-67
2021/06/17 04:41:58;;;;;;;18.73;16.73;;;;;;;20.28;100.00;100874.31;3567391;40;20047;-63
2021/06/17 04:44:25;;;;;;;21.63;17.27;;;;;;;20.43;100.00;100876.09;3569184;40;20047;-64
2021/06/17 04:46:54;;;;;;;20.85;18.27;;;;;;;20.47;100.00;100875.47;3571381;40;20287;-64
2021/06/17 04:49:22;;;;;;;18.92;17.02;;;;;;;20.65;100.00;100877.69;3571435;40;20047;-64
2021/06/17 04:51:51;;;;;;;18.30;16.38;;;;;;;20.85;100.00;100874.25;3567830;40;20515;-65
2021/06/17 04:54:19;;;;;;;19.60;17.38;;;;;;;21.06;100.00;100881.47;3566349;40;20053;-64
2021/06/17 04:56:46;;;;;;;18.10;16.45;;;;;;;21.34;100.00;100886.00;3569834;40;20334;-64
2021/06/17 04:59:12;;;;;;;18.45;16.55;;;;;;;21.65;100.00;100893.66;3571119;40;20142;-64
2021/06/17 05:01:40;;;;;;;20.35;16.35;;;;;;;22.16;100.00;100891.38;3566104;40;20769;-66
2021/06/17 05:04:07;;;;;;;21.70;16.88;;;;;;;22.11;100.00;100894.72;3572565;40;20070;-64
2021/06/17 05:06:36;;;;;;;16.42;14.73;;;;;;;23.28;100.00;100888.53;3571485;40;20067;-65
2021/06/17 05:11:49;;;;;;;18.27;14.35;;;;;;;24.03;100.00;100885.06;3570609;40;19994;-64
2021/06/17 05:14:16;;;;;;;15.68;14.13;;;;;;;23.04;100.00;100888.19;3570759;40;20045;-65
2021/06/17 05:16:42;;;;;;;15.55;13.95;;;;;;;22.87;100.00;100887.00;3568096;40;20056;-64
2021/06/17 05:19:08;;;;;;;18.70;14.80;;;;;;;22.35;100.00;100890.53;3567012;40;20074;-65
2021/06/17 05:21:35;;;;;;;17.52;13.77;;;;;;;22.15;100.00;100884.19;3568579;40;20047;-64
2021/06/17 05:24:03;;;;;;;15.65;13.98;;;;;;;22.13;100.00;100886.28;3559774;40;20049;-66
2021/06/17 05:26:30;;;;;;;15.48;13.60;;;;;;;22.09;100.00;100883.13;3561497;40;20048;-65
2021/06/17 05:28:56;;;;;;;16.70;14.20;;;;;;;22.23;100.00;100878.47;3562662;40;20061;-64
2021/06/17 05:31:26;;;;;;;15.45;13.80;;;;;;;22.28;100.00;100883.34;3562546;40;20052;-65
2021/06/17 05:33:52;;;;;;;15.35;13.70;;;;;;;22.15;100.00;100884.19;3559764;40;20123;-65
2021/06/17 05:36:19;;;;;;;15.60;13.80;;;;;;;22.17;100.00;100884.81;3564094;40;20156;-64
2021/06/17 05:38:45;;;;;;;15.15;13.45;;;;;;;22.33;100.00;100889.88;3567617;40;20053;-64
2021/06/17 05:41:13;;;;;;;16.67;13.25;;;;;;;22.36;100.00;100885.88;3561876;40;20040;-66
2021/06/17 05:43:40;;;;;;;18.58;12.85;;;;;;;22.56;100.00;100880.34;3565983;40;20061;-64
2021/06/17 05:46:06;;;;;;;18.10;12.27;;;;;;;22.68;100.00;100878.63;3568085;40;20073;-64
2021/06/17 05:48:33;;;;;;;15.05;12.68;;;;;;;22.70;100.00;100886.63;3565006;40;20649;-63
2021/06/17 05:51:00;;;;;;;15.30;12.70;;;;;;;22.95;100.00;100894.97;3564266;40;20175;-67
2021/06/17 05:53:27;;;;;;;12.77;11.48;;;;;;;22.95;100.00;100888.66;3559142;40;20378;-64
2021/06/17 05:55:53;;;;;;;15.35;11.60;;;;;;;23.07;100.00;100890.50;3566285;40;20061;-66
2021/06/17 05:58:21;;;;;;;12.57;11.27;;;;;;;23.27;100.00;100895.09;3566424;40;20451;-67
2021/06/17 06:00:47;;;;;;;12.55;11.25;;;;;;;23.26;100.00;100890.66;3563313;40;20264;-64
2021/06/17 06:03:14;;;;;;;12.93;10.02;;;;;;;23.49;100.00;100898.34;3556544;40;20297;-64
2021/06/17 06:05:40;;;;;;;11.73;10.45;;;;;;;23.55;100.00;100899.34;3563273;40;20053;-65
2021/06/17 06:08:11;;;;;;;15.82;10.43;;;;;;;23.78;100.00;100896.03;3556580;40;20074;-65
2021/06/17 06:10:38;;;;;;;14.05;10.43;;;;;;;23.93;100.00;100895.72;3561747;40;20051;-66
2021/06/17 06:13:05;;;;;;;13.77;10.15;;;;;;;24.00;100.00;100891.03;3566082;40;20072;-67
2021/06/17 06:15:36;;;;;;;11.98;9.48;;;;;;;24.08;100.00;100898.97;3566973;40;20408;-65
2021/06/17 06:18:07;;;;;;;13.60;8.77;;;;;;;24.34;100.00;100891.56;3567088;40;20058;-65
2021/06/17 06:20:35;;;;;;;11.75;9.40;;;;;;;24.76;100.00;100890.91;3561443;40;20048;-65
2021/06/17 06:23:02;;;;;;;13.18;8.98;;;;;;;24.98;100.00;100889.38;3564928;40;20416;-65
2021/06/17 06:28:05;;;;;;;10.98;8.27;;;;;;;25.51;100.00;100884.22;3620372;22;20105;-65
2021/06/17 06:30:33;;;;;;;9.45;8.32;;;;;;;25.68;100.00;100889.91;3596230;39;20421;-65
2021/06/17 06:33:00;;;;;;;10.32;8.38;;;;;;;25.85;100.00;100893.66;3607440;39;20133;-66
2021/06/17 06:35:27;;;;;;;9.75;8.57;;;;;;;26.00;100.00;100892.38;3609665;39;20341;-65
2021/06/17 06:37:53;;;;;;;9.98;7.60;;;;;;;26.46;100.00;100889.84;3613156;39;20058;-64
2021/06/17 06:40:23;;;;;;;9.23;7.90;;;;;;;26.29;100.00;100889.75;3612915;39;20414;-64
2021/06/17 06:42:50;;;;;;;14.30;7.25;;;;;;;26.39;100.00;100887.25;3611731;39;20106;-65
2021/06/17 06:45:16;;;;;;;8.85;6.85;;;;;;;26.38;100.00;100893.81;3611927;39;20075;-64
2021/06/17 06:47:45;;;;;;;9.63;6.70;;;;;;;26.61;100.00;100892.97;3610153;39;20039;-64
2021/06/17 06:50:12;;;;;;;6.65;5.57;;;;;;;26.43;100.00;100890.34;3613747;39;20063;-66
2021/06/17 06:52:39;;;;;;;7.82;6.18;;;;;;;26.38;100.00;100888.31;3671295;22;20049;-65
2021/06/17 06:55:08;;;;;;;6.18;5.18;;;;;;;26.40;100.00;100880.66;3592722;39;20128;-65
2021/06/17 06:57:35;;;;;;;7.93;5.45;;;;;;;26.67;100.00;100880.13;3593813;39;20036;-67
2021/06/17 07:00:01;;;;;;;9.48;6.10;;;;;;;26.64;100.00;100875.09;3593945;39;20432;-65
2021/06/17 07:02:28;;;;;;;8.73;5.70;;;;;;;26.72;100.00;100880.25;3593754;40;20043;-65
2021/06/17 07:04:56;;;;;;;10.65;6.70;;;;;;;26.90;100.00;100884.78;3592998;39;20052;-64
2021/06/17 07:07:22;;;;;;;7.53;5.60;;;;;;;27.09;100.00;100877.13;3593274;39;20082;-64
2021/06/17 07:09:51;;;;;;;9.02;5.93;;;;;;;27.07;100.00;100884.84;3593860;40;20048;-64
2021/06/17 07:12:17;;;;;;;;;;;;;;;27.37;100.00;100886.53;3593824;39;20395;-64
2021/06/17 07:14:44;;;;;;;11.73;5.38;;;;;;;27.60;99.03;100883.66;3593513;39;19946;-65
2021/06/17 07:17:10;;;;;;;6.80;4.63;;;;;;;27.43;100.00;100888.34;3593313;39;20377;-66
2021/06/17 07:19:37;;;;;;;9.98;5.30;;;;;;;27.44;96.22;100887.22;3592802;40;20383;-63
2021/06/17 07:22:05;;;;;;;8.40;4.63;;;;;;;27.27;100.00;100892.69;3593278;39;20052;-63
2021/06/17 07:24:31;;;;;;;7.35;5.22;;;;;;;27.44;92.63;100890.00;3592590;39;20439;-63
2021/06/17 07:26:58;;;;;;;7.57;4.97;;;;;;;27.08;91.54;100886.53;3591394;39;20048;-64
2021/06/17 07:29:24;;;;;;;5.90;4.78;;;;;;;27.33;100.00;100888.13;3591330;39;20048;-64
2021/06/17 07:31:51;;;;;;;9.35;5.75;;;;;;;27.27;94.12;100874.19;3591711;40;20044;-64
2021/06/17 07:34:18;;;;;;;7.28;4.32;;;;;;;27.71;92.35;100883.81;3590270;39;20064;-65
2021/06/17 07:36:44;;;;;;;9.00;4.80;;;;;;;28.22;80.62;100894.94;3590823;40;20071;-63
2021/06/17 07:39:13;;;;;;;9.85;5.28;;;;;;;28.34;81.52;100908.66;3589485;40;20064;-65
2021/06/17 07:41:39;;;;;;;;;;;;;;;28.28;75.11;100911.38;3591308;39;20070;-65
2021/06/17 07:44:07;;;;;;;10.05;4.72;;;;;;;27.92;81.00;100921.81;3587280;40;20279;-65
2021/06/17 07:46:33;;;;;;;5.20;4.50;;;;;;;28.28;80.60;100922.44;3591090;39;20459;-64
2021/06/17 07:49:01;;;;;;;7.57;5.25;;;;;;;27.77;79.49;100922.41;3592476;39;20060;-64
2021/06/17 07:51:28;;;;;;;8.70;4.75;;;;;;;27.78;80.83;100909.41;3592539;40;20048;-64
2021/06/17 07:53:58;;;;;;;7.03;4.72;;;;;;;28.09;77.57;100908.03;3591298;39;20067;-64
2021/06/17 07:56:26;;;;;;;7.93;5.15;;;;;;;28.07;76.39;100917.66;3590251;39;20377;-64
2021/06/17 07:58:53;;;;;;;9.05;4.97;;;;;;;28.10;76.00;100920.75;3591976;39;20052;-65
2021/06/17 08:01:19;;;;;;;7.40;4.80;;;;;;;28.18;75.15;100926.97;3591664;39;20188;-63
2021/06/17 08:03:46;;;;;;;12.98;5.10;;;;;;;28.00;76.07;100917.81;3591221;39;20032;-65
2021/06/17 08:06:12;;;;;;;7.22;5.60;;;;;;;28.21;77.87;100930.06;3587324;39;20040;-65
2021/06/17 08:08:39;;;;;;;12.85;5.50;;;;;;;28.19;76.99;100932.25;3591104;39;20048;-64
2021/06/17 08:11:05;;;;;;;7.13;5.13;;;;;;;28.20;80.10;100931.16;3589763;39;20036;-64
2021/06/17 08:13:33;;;;;;;6.75;5.18;;;;;;;28.10;84.57;100925.47;3591481;40;20063;-66
2021/06/17 08:15:59;;;;;;;7.53;5.65;;;;;;;28.13;80.54;100933.25;3591529;40;20577;-64
2021/06/17 08:18:26;;;;;;;8.95;5.43;;;;;;;28.26;91.67;100930.16;3591537;39;20087;-64
2021/06/17 08:20:54;;;;;;;10.95;5.65;;;;;;;28.24;84.90;100926.81;3589721;40;20048;-63
2021/06/17 08:23:21;;;;;;;14.90;5.72;;;;;;;28.29;84.15;100921.34;3590150;40;20033;-64
2021/06/17 08:25:48;;;;;;;9.93;5.75;;;;;;;27.83;85.82;100915.03;3590324;40;20067;-64
2021/06/17 08:28:14;;;;;;;7.85;5.45;;;;;;;27.79;86.96;100908.31;3591393;39;20055;-63
2021/06/17 08:30:42;;;;;;;7.82;5.68;;;;;;;28.09;85.58;100912.72;3589841;39;20482;-64
2021/06/17 08:33:09;;;;;;;8.25;5.40;;;;;;;28.19;88.72;100906.50;3590188;40;20314;-64
2021/06/17 08:35:36;;;;;;;6.68;5.80;;;;;;;28.15;88.28;100917.25;3589697;40;20076;-63
2021/06/17 08:38:03;;;;;;;9.82;6.18;;;;;;;28.16;85.52;100929.97;3590483;39;20044;-63
2021/06/17 08:40:34;;;;;;;7.30;6.03;;;;;;;28.15;89.78;100936.63;3587970;40;20052;-63
2021/06/17 08:43:01;;;;;;;7.90;6.07;;;;;;;28.27;87.11;100934.59;3590721;39;20122;-65
2021/06/17 08:45:28;;;;;;;12.02;6.00;;;;;;;28.22;84.82;100934.50;3590731;39;20050;-64
2021/06/17 08:47:56;;;;;;;12.07;6.13;;;;;;;28.34;91.43;100931.63;3590836;39;20334;-64
2021/06/17 08:50:24;;;;;;;12.90;7.07;;;;;;;28.43;83.93;100937.59;3591401;39;20075;-65
2021/06/17 08:52:51;;;;;;;9.20;5.00;;;;;;;28.84;86.61;100935.44;3591222;39;20052;-65
2021/06/17 08:55:21;;;;;;;9.80;5.65;;;;;;;28.79;85.55;100930.66;3579147;40;20048;-64
2021/06/17 08:57:49;;;;;;;11.18;6.65;;;;;;;28.26;86.68;100923.78;3578433;40;20035;-66
2021/06/17 09:00:36;;;;;;;12.65;6.03;;;;;;;28.66;88.16;100918.00;3579194;40;20076;-64
2021/06/17 09:03:06;;;;;;;7.72;5.25;;;;;;;29.03;86.64;100916.56;3580284;40;20047;-65
2021/06/17 09:05:36;;;;;;;9.07;5.53;;;;;;;29.32;86.37;100911.66;3579091;40;20053;-64
2021/06/17 09:08:03;;;;;;;6.30;5.55;;;;;;;29.56;75.75;100907.75;3580392;40;20056;-65
2021/06/17 09:10:30;;;;;;;8.30;5.57;;;;;;;29.00;85.40;100894.91;3580879;40;20415;-65
2021/06/17 09:12:58;;;;;;;8.55;5.95;;;;;;;29.24;82.16;100892.75;3581600;40;20056;-65
2021/06/17 09:15:30;;;;;;;8.43;5.80;;;;;;;29.28;81.06;100896.63;3580057;40;20408;-65
2021/06/17 09:18:14;;;;;;;8.27;5.68;;;;;;;30.00;76.74;100891.78;3579586;40;20426;-66
2021/06/17 09:20:45;;;;;;;8.95;5.70;;;;;;;29.64;87.20;100897.00;3579792;40;20299;-66
2021/06/17 09:23:19;;;;;;;11.27;6.20;;;;;;;29.88;85.58;100897.53;3580914;40;20315;-66
2021/06/17 09:25:49;;;;;;;10.50;7.22;;;;;;;29.33;82.45;100896.72;3579689;40;20037;-64
2021/06/17 09:28:15;;;;;;;8.80;5.90;;;;;;;29.53;80.33;100898.88;3580619;40;20413;-64
2021/06/17 09:30:42;;;;;;;7.07;6.07;;;;;;;29.76;78.21;100890.47;3580520;40;20060;-64
2021/06/17 09:33:13;;;;;;;6.85;5.90;;;;;;;29.70;75.54;100901.50;3581058;40;20689;-64
2021/06/17 09:35:49;;;;;;;8.63;5.53;;;;;;;29.28;81.50;100895.81;3579697;40;20052;-64
2021/06/17 09:38:16;;;;;;;10.52;6.57;;;;;;;29.92;73.92;100883.97;3579849;40;20323;-66
2021/06/17 09:40:46;;;;;;;10.13;7.55;;;;;;;29.86;76.38;100885.03;3577361;40;20052;-63
2021/06/17 09:43:18;;;;;;;10.77;6.47;;;;;;;29.89;81.34;100876.19;3580428;40;20131;-64
2021/06/17 09:45:53;;;;;;;9.95;6.65;;;;;;;30.61;68.59;100873.91;3579932;40;20040;-64
2021/06/17 09:48:36;;;;;;;8.98;6.53;;;;;;;30.78;62.78;100859.78;3580642;40;20437;-64
2021/06/17 09:51:28;;;;;;;10.20;6.28;;;;;;;31.00;61.02;100844.88;3579641;40;20392;-64
2021/06/17 09:54:07;;;;;;;6.53;5.57;;;;;;;31.02;66.23;100832.41;3583020;40;20036;-66
2021/06/17 09:56:35;;;;;;;10.50;6.15;;;;;;;31.59;63.96;100832.47;3588214;39;20084;-65
2021/06/17 09:59:02;;;;;;;11.10;6.45;;;;;;;32.21;57.58;100832.44;3589223;39;20125;-64
2021/06/17 10:01:33;;;;;;;9.10;6.63;;;;;;;32.16;58.36;100824.13;3586219;39;20082;-66
2021/06/17 10:04:04;;;;;;;9.20;5.30;;;;;;;32.03;57.32;100817.97;3587638;40;20411;-63
2021/06/17 10:06:30;;;;;;;7.65;5.38;;;;;;;31.30;64.25;100813.50;3587709;40;20051;-63
2021/06/17 10:08:57;;;;;;;8.57;5.40;;;;;;;31.07;65.93;100810.16;3591265;39;20436;-64
2021/06/17 10:11:24;;;;;;;8.00;5.25;;;;;;;31.63;69.93;100804.97;3592386;39;20044;-63
2021/06/17 10:13:51;;;;;;;10.45;4.90;;;;;;;31.69;72.88;100801.06;3592675;39;20342;-64
2021/06/17 10:16:18;;;;;;;6.82;5.05;;;;;;;31.74;68.44;100795.47;3608829;22;20061;-63
2021/06/17 10:18:45;;;;;;;5.63;4.82;;;;;;;32.66;60.50;100780.44;3577946;40;20056;-64
2021/06/17 10:21:14;;;;;;;6.05;5.00;;;;;;;33.03;57.13;100786.69;3568972;40;20073;-63
2021/06/17 10:23:42;;;;;;;8.93;4.70;;;;;;;33.55;52.67;100776.78;3576961;40;20112;-64
2021/06/17 10:26:09;;;;;;;7.07;4.53;;;;;;;33.65;53.38;100779.50;3577958;40;20055;-64
2021/06/17 10:28:45;;;;;;;5.18;4.68;;;;;;;33.92;53.33;100778.13;3579533;39;20059;-64
2021/06/17 10:31:14;;;;;;;7.28;4.38;;;;;;;33.37;54.97;100789.50;3588025;39;20066;-64
2021/06/17 10:33:42;;;;;;;5.25;4.40;;;;;;;33.63;52.72;100783.69;3588593;40;20069;-64
2021/06/17 10:36:25;;;;;;;4.80;4.27;;;;;;;32.99;53.93;100787.22;3588902;39;20042;-66
2021/06/17 10:39:18;;;;;;;9.60;4.57;;;;;;;33.07;51.11;100783.03;3587199;39;20048;-65
2021/06/17 10:42:20;;;;;;;6.57;4.15;;;;;;;33.58;50.71;100792.94;3588421;40;20366;-65
2021/06/17 10:44:50;;;;;;;6.30;3.95;;;;;;;34.32;48.88;100789.16;3588647;39;20036;-64
2021/06/17 10:48:12;;;;;;;5.57;4.25;;;;;;;32.78;53.51;100806.03;3586926;40;20040;-64
2021/06/17 10:51:10;;;;;;;9.10;4.78;;;;;;;32.81;54.00;100807.44;3588055;39;20044;-65
2021/06/17 10:53:50;;;;;;;8.18;4.47;;;;;;;32.65;53.97;100824.19;3586352;39;20045;-64
2021/06/17 10:56:19;;;;;;;8.07;4.43;;;;;;;32.61;52.53;100838.97;3587018;39;20129;-65
2021/06/17 10:59:04;;;;;;;10.02;4.32;;;;;;;33.02;53.57;100838.81;3586913;39;20145;-64
2021/06/17 11:01:49;;;;;;;8.05;4.93;;;;;;;33.01;53.01;100848.31;3587516;39;20052;-65
2021/06/17 11:04:36;;;;;;;7.53;4.80;;;;;;;32.95;54.06;100846.66;3588587;39;20190;-63
2021/06/17 11:07:17;;;;;;;6.15;5.40;;;;;;;33.01;57.18;100848.31;3589060;39;20053;-64
2021/06/17 11:10:04;;;;;;;7.07;4.90;;;;;;;32.50;63.70;100854.91;3588621;39;20048;-65
2021/06/17 11:12:59;;;;;;;7.43;4.90;;;;;;;32.76;60.18;100860.41;3589801;39;20051;-64
2021/06/17 11:15:42;;;;;;;8.38;5.00;;;;;;;32.61;62.43;100858.47;3588864;39;20047;-64
2021/06/17 11:18:09;;;;;;;9.85;5.40;;;;;;;32.39;69.55;100861.63;3587675;39;20056;-64
2021/06/17 11:20:42;;;;;;;9.60;5.03;;;;;;;31.56;63.60;100860.84;3589954;39;20108;-65
2021/06/17 11:23:09;;;;;;;6.68;4.30;;;;;;;31.79;65.58;100859.47;3589356;39;20051;-65
2021/06/17 11:25:45;;;;;;;7.47;4.40;;;;;;;32.18;59.90;100874.78;3588761;39;20120;-64
2021/06/17 11:28:14;;;;;;;7.50;4.43;;;;;;;31.57;58.83;100880.06;3579874;39;20161;-63
2021/06/17 11:30:59;;;;;;;14.05;5.07;;;;;;;31.44;58.45;100886.94;3586794;39;20411;-64
2021/06/17 11:36:00;;;;;;;8.98;4.85;;;;;;;31.69;60.99;100888.13;3651361;22;20051;-66